createdAt,value
2017-08-29T00:00:19.588Z,16.20
2017-08-29T00:02:47.502Z,16.20
2017-08-29T00:05:15.006Z,16.20
2017-08-29T00:07:42.566Z,16.10
2017-08-29T00:10:10.103Z,16.10
2017-08-29T00:12:37.670Z,16.10
2017-08-29T00:15:05.538Z,16.10
2017-08-29T00:17:33.063Z,16.00
2017-08-29T00:20:00.594Z,16.00
2017-08-29T00:22:28.165Z,16.00
2017-08-29T00:24:55.691Z,16.00
2017-08-29T00:27:23.580Z,16.00
2017-08-29T00:29:51.106Z,16.00
2017-08-29T00:32:19.408Z,16.00
2017-08-29T00:34:46.958Z,16.00
2017-08-29T00:37:14.493Z,15.90
2017-08-29T00:39:42.329Z,15.90
2017-08-29T00:42:09.857Z,15.80
2017-08-29T00:44:37.454Z,15.80
2017-08-29T00:47:04.990Z,15.80
2017-08-29T00:49:32.516Z,15.70
2017-08-29T00:52:00.366Z,15.70
2017-08-29T00:54:27.911Z,15.70
2017-08-29T00:56:55.422Z,15.70
2017-08-29T00:59:22.960Z,15.70
2017-08-29T01:01:50.494Z,15.70
2017-08-29T01:04:18.385Z,15.60
2017-08-29T01:06:45.918Z,15.60
2017-08-29T01:09:13.452Z,15.50
2017-08-29T01:11:41.012Z,15.50
2017-08-29T01:14:08.549Z,15.50
2017-08-29T01:16:36.411Z,15.50
2017-08-29T01:19:03.949Z,15.50
2017-08-29T01:21:31.468Z,15.50
2017-08-29T01:23:59.022Z,15.40
2017-08-29T01:26:26.555Z,15.40
2017-08-29T01:28:54.384Z,15.40
2017-08-29T01:31:21.928Z,15.40
2017-08-29T01:33:49.455Z,15.40
2017-08-29T01:36:17.031Z,15.30
2017-08-29T01:38:44.558Z,15.40
2017-08-29T01:41:12.404Z,15.30
2017-08-29T01:43:39.927Z,15.30
2017-08-29T01:46:07.451Z,15.30
2017-08-29T01:48:35.031Z,15.30
2017-08-29T01:51:02.572Z,15.20
2017-08-29T01:53:30.505Z,15.20
2017-08-29T01:55:58.065Z,15.20
2017-08-29T01:58:25.624Z,15.20
2017-08-29T02:00:53.194Z,15.20
2017-08-29T02:03:20.713Z,15.20
2017-08-29T02:05:48.608Z,15.20
2017-08-29T02:08:16.154Z,15.10
2017-08-29T02:10:43.724Z,15.10
2017-08-29T02:13:11.285Z,15.10
2017-08-29T02:15:38.807Z,15.10
2017-08-29T02:18:06.656Z,15.10
2017-08-29T02:20:34.171Z,15.10
2017-08-29T02:23:01.702Z,15.10
2017-08-29T02:25:29.259Z,15.10
2017-08-29T02:27:56.798Z,15.10
2017-08-29T02:30:24.613Z,15.10
2017-08-29T02:32:52.133Z,15.00
2017-08-29T02:35:19.697Z,15.00
2017-08-29T02:37:47.241Z,15.00
2017-08-29T02:40:14.833Z,15.00
2017-08-29T02:42:42.752Z,15.00
2017-08-29T02:45:10.277Z,14.90
2017-08-29T02:47:37.843Z,14.90
2017-08-29T02:50:05.420Z,14.90
2017-08-29T02:52:32.939Z,14.90
2017-08-29T02:55:00.766Z,14.90
2017-08-29T02:57:28.304Z,14.90
2017-08-29T02:59:55.836Z,14.90
2017-08-29T03:02:23.403Z,14.90
2017-08-29T03:04:50.927Z,14.80
2017-08-29T03:07:18.846Z,14.80
2017-08-29T03:09:46.372Z,14.80
2017-08-29T03:12:13.901Z,14.80
2017-08-29T03:14:41.467Z,14.80
2017-08-29T03:17:09.021Z,14.70
2017-08-29T03:19:36.871Z,14.70
2017-08-29T03:22:04.407Z,14.70
2017-08-29T03:24:31.931Z,14.70
2017-08-29T03:26:59.487Z,14.70
2017-08-29T03:29:27.019Z,14.70
2017-08-29T03:31:54.879Z,14.70
2017-08-29T03:34:22.421Z,14.60
2017-08-29T03:36:49.950Z,14.60
2017-08-29T03:39:17.504Z,14.60
2017-08-29T03:41:45.023Z,14.60
2017-08-29T03:44:12.873Z,14.50
2017-08-29T03:46:40.531Z,14.50
2017-08-29T03:49:08.089Z,14.50
2017-08-29T03:51:35.652Z,14.50
2017-08-29T03:54:03.176Z,14.50
2017-08-29T03:56:31.091Z,14.40
2017-08-29T03:58:58.612Z,14.40
2017-08-29T04:01:26.153Z,14.50
2017-08-29T04:03:53.715Z,14.50
2017-08-29T04:06:21.234Z,14.50
2017-08-29T04:08:49.083Z,14.40
2017-08-29T04:11:16.673Z,14.40
2017-08-29T04:13:44.233Z,14.40
2017-08-29T04:16:11.814Z,14.40
2017-08-29T04:18:39.365Z,14.40
2017-08-29T04:21:07.219Z,14.40
2017-08-29T04:23:34.747Z,14.40
2017-08-29T04:26:02.284Z,14.40
2017-08-29T04:28:29.845Z,14.40
2017-08-29T04:30:57.392Z,14.40
2017-08-29T04:33:25.300Z,14.40
2017-08-29T04:35:52.821Z,14.40
2017-08-29T04:38:20.383Z,14.40
2017-08-29T04:40:47.939Z,14.40
2017-08-29T04:43:15.475Z,14.40
2017-08-29T04:45:45.880Z,14.40
2017-08-29T04:48:13.426Z,14.40
2017-08-29T04:50:40.942Z,14.50
2017-08-29T04:53:08.491Z,14.50
2017-08-29T04:55:36.021Z,14.50
2017-08-29T04:58:03.883Z,14.60
2017-08-29T05:00:31.421Z,14.60
2017-08-29T05:02:58.983Z,14.60
2017-08-29T05:05:26.538Z,14.60
2017-08-29T05:07:54.056Z,14.60
2017-08-29T05:10:22.020Z,14.60
2017-08-29T05:12:49.567Z,14.70
2017-08-29T05:15:17.080Z,14.70
2017-08-29T05:17:44.661Z,14.70
2017-08-29T05:20:12.178Z,14.80
2017-08-29T05:22:40.006Z,14.80
2017-08-29T05:25:07.524Z,14.80
2017-08-29T05:27:35.043Z,14.90
2017-08-29T05:30:02.613Z,14.90
2017-08-29T05:32:30.158Z,14.90
2017-08-29T05:34:58.007Z,15.00
2017-08-29T05:37:25.526Z,15.10
2017-08-29T05:39:53.061Z,15.10
2017-08-29T05:42:20.629Z,15.20
2017-08-29T05:44:48.164Z,15.30
2017-08-29T05:47:16.021Z,15.40
2017-08-29T05:49:43.568Z,15.50
2017-08-29T05:52:11.106Z,15.60
2017-08-29T05:54:38.668Z,15.70
2017-08-29T05:57:06.208Z,15.70
2017-08-29T05:59:34.155Z,15.80
2017-08-29T06:02:01.711Z,15.90
2017-08-29T06:04:29.259Z,16.00
2017-08-29T06:06:56.797Z,16.10
2017-08-29T06:09:24.314Z,16.10
2017-08-29T06:11:52.247Z,16.20
2017-08-29T06:14:19.760Z,16.40
2017-08-29T06:16:47.288Z,16.40
2017-08-29T06:19:14.852Z,16.50
2017-08-29T06:21:42.390Z,16.60
2017-08-29T06:24:11.168Z,16.70
2017-08-29T06:26:38.699Z,16.80
2017-08-29T06:29:06.245Z,17.00
2017-08-29T06:31:33.809Z,17.10
2017-08-29T06:34:01.356Z,17.20
2017-08-29T06:36:29.170Z,17.30
2017-08-29T06:38:56.704Z,17.40
2017-08-29T06:41:24.274Z,17.50
2017-08-29T06:43:51.823Z,17.60
2017-08-29T06:46:19.395Z,17.70
2017-08-29T06:48:47.308Z,17.90
2017-08-29T06:51:14.885Z,18.00
2017-08-29T06:53:42.405Z,18.20
2017-08-29T06:56:09.966Z,18.30
2017-08-29T06:58:37.515Z,18.40
2017-08-29T07:01:05.390Z,18.60
2017-08-29T07:03:32.932Z,18.70
2017-08-29T07:06:00.463Z,18.90
2017-08-29T07:08:28.025Z,19.00
2017-08-29T07:10:56.319Z,19.30
2017-08-29T07:13:24.228Z,19.30
2017-08-29T07:15:51.766Z,19.40
2017-08-29T07:18:19.307Z,19.60
2017-08-29T07:20:46.866Z,19.70
2017-08-29T07:23:14.385Z,19.90
2017-08-29T07:25:42.242Z,20.00
2017-08-29T07:28:09.778Z,20.20
2017-08-29T07:30:37.295Z,20.30
2017-08-29T07:33:04.867Z,20.40
2017-08-29T07:35:32.399Z,20.50
2017-08-29T07:38:00.514Z,20.70
2017-08-29T07:40:28.062Z,20.80
2017-08-29T07:42:55.571Z,20.90
2017-08-29T07:45:23.122Z,21.10
2017-08-29T07:47:50.635Z,21.20
2017-08-29T07:50:18.476Z,21.30
2017-08-29T07:52:46.040Z,21.50
2017-08-29T07:55:13.584Z,21.60
2017-08-29T07:57:41.161Z,21.70
2017-08-29T08:00:08.831Z,21.80
2017-08-29T08:02:36.864Z,21.90
2017-08-29T08:05:04.411Z,22.10
2017-08-29T08:07:31.956Z,22.20
2017-08-29T08:09:59.488Z,22.30
2017-08-29T08:12:27.032Z,22.30
2017-08-29T08:14:54.874Z,22.40
2017-08-29T08:17:22.424Z,22.50
2017-08-29T08:19:49.971Z,22.70
2017-08-29T08:22:17.594Z,22.80
2017-08-29T08:24:45.135Z,22.90
2017-08-29T08:27:13.047Z,23.00
2017-08-29T08:29:40.573Z,23.00
2017-08-29T08:32:08.108Z,23.10
2017-08-29T08:34:35.701Z,23.20
2017-08-29T08:37:03.224Z,23.30
2017-08-29T08:39:31.087Z,23.50
2017-08-29T08:41:58.640Z,23.60
2017-08-29T08:44:26.176Z,23.70
2017-08-29T08:46:53.728Z,23.80
2017-08-29T08:49:21.252Z,23.90
2017-08-29T08:51:49.189Z,24.10
2017-08-29T08:54:16.760Z,24.10
2017-08-29T08:56:44.286Z,24.20
2017-08-29T08:59:11.842Z,24.30
2017-08-29T09:01:39.373Z,24.40
2017-08-29T09:04:07.217Z,24.60
2017-08-29T09:06:34.741Z,24.70
2017-08-29T09:09:02.318Z,24.80
2017-08-29T09:11:29.862Z,24.90
2017-08-29T09:13:57.416Z,25.00
2017-08-29T09:16:25.266Z,25.00
2017-08-29T09:18:52.783Z,25.10
2017-08-29T09:21:20.320Z,25.20
2017-08-29T09:23:47.884Z,25.30
2017-08-29T09:26:15.423Z,25.30
2017-08-29T09:28:43.319Z,25.40
2017-08-29T09:31:10.866Z,25.50
2017-08-29T09:33:38.404Z,25.60
2017-08-29T09:36:05.938Z,25.70
2017-08-29T09:38:33.492Z,25.70
2017-08-29T09:41:01.339Z,25.80
2017-08-29T09:43:28.874Z,26.00
2017-08-29T09:45:56.460Z,26.00
2017-08-29T09:48:24.030Z,26.10
2017-08-29T09:50:51.570Z,26.20
2017-08-29T09:53:19.529Z,26.30
2017-08-29T09:55:47.071Z,26.40
2017-08-29T09:58:14.625Z,26.40
2017-08-29T10:00:42.190Z,26.50
2017-08-29T10:03:09.711Z,26.60
2017-08-29T10:05:37.562Z,26.70
2017-08-29T10:08:05.092Z,26.80
2017-08-29T10:10:32.636Z,26.90
2017-08-29T10:13:00.955Z,27.20
2017-08-29T10:15:28.513Z,27.20
2017-08-29T10:17:56.370Z,27.20
2017-08-29T10:20:23.974Z,27.30
2017-08-29T10:22:51.516Z,27.40
2017-08-29T10:25:19.073Z,27.40
2017-08-29T10:27:46.625Z,27.50
2017-08-29T10:30:14.453Z,27.50
2017-08-29T10:32:41.984Z,27.60
2017-08-29T10:35:09.520Z,27.70
2017-08-29T10:37:37.113Z,27.80
2017-08-29T10:40:04.647Z,27.80
2017-08-29T10:42:32.499Z,27.90
2017-08-29T10:45:00.024Z,27.90
2017-08-29T10:47:28.310Z,28.10
2017-08-29T10:49:55.885Z,28.10
2017-08-29T10:52:23.429Z,28.10
2017-08-29T10:54:51.347Z,28.10
2017-08-29T10:57:18.886Z,28.10
2017-08-29T10:59:46.409Z,28.10
2017-08-29T11:02:13.966Z,28.10
2017-08-29T11:04:41.503Z,28.20
2017-08-29T11:07:09.329Z,28.20
2017-08-29T11:09:36.866Z,28.30
2017-08-29T11:12:04.369Z,28.30
2017-08-29T11:14:31.934Z,28.30
2017-08-29T11:16:59.470Z,28.40
2017-08-29T11:19:27.591Z,28.40
2017-08-29T11:21:55.108Z,28.40
2017-08-29T11:24:22.785Z,28.50
2017-08-29T11:26:50.755Z,28.60
2017-08-29T11:29:18.312Z,28.60
2017-08-29T11:31:45.838Z,28.80
2017-08-29T11:34:13.400Z,29.10
2017-08-29T11:36:40.931Z,29.60
2017-08-29T11:39:08.505Z,30.30
2017-08-29T11:41:36.021Z,31.00
2017-08-29T11:44:03.568Z,31.80
2017-08-29T11:46:31.119Z,32.60
2017-08-29T11:48:58.980Z,33.10
2017-08-29T11:51:26.524Z,33.80
2017-08-29T11:53:54.068Z,34.30
2017-08-29T11:56:21.603Z,34.80
2017-08-29T11:58:49.229Z,35.50
2017-08-29T12:01:17.131Z,36.10
2017-08-29T12:03:44.687Z,36.80
2017-08-29T12:06:12.233Z,37.70
2017-08-29T12:08:39.807Z,38.60
2017-08-29T12:11:07.361Z,39.30
2017-08-29T12:13:35.167Z,39.80
2017-08-29T12:16:02.689Z,40.00
2017-08-29T12:18:30.247Z,40.20
2017-08-29T12:20:57.793Z,40.50
2017-08-29T12:23:25.316Z,40.90
2017-08-29T12:25:53.236Z,41.20
2017-08-29T12:28:20.773Z,41.50
2017-08-29T12:30:48.309Z,41.50
2017-08-29T12:33:15.854Z,41.70
2017-08-29T12:35:43.377Z,41.90
2017-08-29T12:38:11.255Z,42.20
2017-08-29T12:40:38.768Z,42.40
2017-08-29T12:43:06.299Z,42.50
2017-08-29T12:45:33.880Z,42.70
2017-08-29T12:48:01.406Z,42.90
2017-08-29T12:50:29.255Z,42.90
2017-08-29T12:52:56.785Z,43.00
2017-08-29T12:55:24.371Z,43.10
2017-08-29T12:57:51.936Z,43.10
2017-08-29T13:00:19.456Z,43.10
2017-08-29T13:02:47.445Z,43.20
2017-08-29T13:05:14.985Z,43.20
2017-08-29T13:07:42.563Z,43.40
2017-08-29T13:10:10.113Z,43.40
2017-08-29T13:12:38.561Z,43.30
2017-08-29T13:15:06.549Z,43.10
2017-08-29T13:17:34.079Z,43.10
2017-08-29T13:20:01.599Z,43.10
2017-08-29T13:22:29.155Z,43.40
2017-08-29T13:24:56.703Z,43.80
2017-08-29T13:27:24.529Z,43.80
2017-08-29T13:29:52.165Z,44.10
2017-08-29T13:32:19.732Z,44.50
2017-08-29T13:34:47.334Z,44.70
2017-08-29T13:37:15.512Z,44.50
2017-08-29T13:39:43.433Z,44.20
2017-08-29T13:42:10.965Z,43.80
2017-08-29T13:44:38.497Z,43.40
2017-08-29T13:47:06.045Z,43.10
2017-08-29T13:49:34.494Z,43.00
2017-08-29T13:52:02.359Z,42.90
2017-08-29T13:54:30.262Z,43.00
2017-08-29T13:56:58.020Z,42.90
2017-08-29T13:59:25.598Z,42.90
2017-08-29T14:01:53.137Z,43.20
2017-08-29T14:04:20.963Z,43.70
2017-08-29T14:06:48.504Z,44.10
2017-08-29T14:09:16.031Z,44.50
2017-08-29T14:11:43.585Z,44.90
2017-08-29T14:14:11.129Z,45.10
2017-08-29T14:16:38.968Z,45.40
2017-08-29T14:19:06.602Z,45.70
2017-08-29T14:21:34.127Z,45.70
2017-08-29T14:24:01.757Z,45.70
2017-08-29T14:26:29.278Z,45.60
2017-08-29T14:28:57.185Z,45.40
2017-08-29T14:31:24.711Z,44.90
2017-08-29T14:33:52.252Z,44.70
2017-08-29T14:36:19.814Z,44.90
2017-08-29T14:38:47.346Z,44.90
2017-08-29T14:41:15.185Z,44.90
2017-08-29T14:43:42.723Z,45.00
2017-08-29T14:46:10.293Z,45.10
2017-08-29T14:48:49.772Z,44.80
2017-08-29T14:51:17.331Z,44.60
2017-08-29T14:53:45.196Z,44.70
2017-08-29T14:56:12.717Z,44.50
2017-08-29T14:58:40.265Z,44.30
2017-08-29T15:01:07.858Z,44.10
2017-08-29T15:03:35.390Z,43.70
2017-08-29T15:06:03.237Z,43.70
2017-08-29T15:08:30.811Z,43.20
2017-08-29T15:10:58.380Z,42.40
2017-08-29T15:13:25.947Z,41.50
2017-08-29T15:15:53.491Z,40.60
2017-08-29T15:18:21.526Z,39.90
2017-08-29T15:20:49.056Z,39.60
2017-08-29T15:23:16.602Z,39.70
2017-08-29T15:25:44.176Z,40.00
2017-08-29T15:28:11.714Z,40.20
2017-08-29T15:30:39.624Z,40.40
2017-08-29T15:33:07.176Z,40.70
2017-08-29T15:35:34.754Z,40.80
2017-08-29T15:38:02.387Z,41.10
2017-08-29T15:40:29.922Z,41.40
2017-08-29T15:42:57.836Z,41.60
2017-08-29T15:45:25.374Z,41.90
2017-08-29T15:47:52.903Z,41.80
2017-08-29T15:50:20.463Z,41.80
2017-08-29T15:52:48.001Z,41.80
2017-08-29T15:55:15.982Z,41.90
2017-08-29T15:57:43.552Z,42.00
2017-08-29T16:00:11.097Z,41.90
2017-08-29T16:02:38.674Z,41.60
2017-08-29T16:05:06.223Z,41.40
2017-08-29T16:07:34.184Z,41.30
2017-08-29T16:10:01.699Z,41.20
2017-08-29T16:12:29.382Z,41.10
2017-08-29T16:14:56.943Z,40.90
2017-08-29T16:17:25.280Z,40.70
2017-08-29T16:19:53.151Z,40.40
2017-08-29T16:22:20.668Z,40.20
2017-08-29T16:24:48.188Z,39.90
2017-08-29T16:27:15.730Z,39.60
2017-08-29T16:29:43.265Z,39.30
2017-08-29T16:32:11.226Z,39.10
2017-08-29T16:34:38.730Z,38.90
2017-08-29T16:37:06.256Z,38.60
2017-08-29T16:39:33.873Z,38.40
2017-08-29T16:42:02.721Z,38.20
2017-08-29T16:44:30.632Z,38.00
2017-08-29T16:46:58.156Z,37.70
2017-08-29T16:49:25.685Z,37.40
2017-08-29T16:51:53.280Z,37.10
2017-08-29T16:54:20.813Z,36.80
2017-08-29T16:56:48.640Z,36.50
2017-08-29T16:59:16.184Z,36.20
2017-08-29T17:01:43.716Z,36.00
2017-08-29T17:04:11.264Z,35.60
2017-08-29T17:06:38.794Z,35.30
2017-08-29T17:09:06.665Z,35.00
2017-08-29T17:11:34.225Z,34.60
2017-08-29T17:14:01.757Z,34.30
2017-08-29T17:16:29.343Z,34.10
2017-08-29T17:18:56.915Z,33.80
2017-08-29T17:21:24.797Z,33.50
2017-08-29T17:23:52.332Z,33.10
2017-08-29T17:26:19.852Z,32.70
2017-08-29T17:28:47.429Z,32.30
2017-08-29T17:31:15.171Z,31.90
2017-08-29T17:33:43.776Z,31.20
2017-08-29T17:36:11.325Z,31.20
2017-08-29T17:38:38.915Z,30.90
2017-08-29T17:41:06.476Z,30.70
2017-08-29T17:43:34.051Z,30.40
2017-08-29T17:46:01.928Z,30.10
2017-08-29T17:48:29.486Z,29.90
2017-08-29T17:50:57.008Z,29.60
2017-08-29T17:53:24.570Z,29.40
2017-08-29T17:55:52.107Z,29.20
2017-08-29T17:58:19.971Z,29.00
2017-08-29T18:00:47.519Z,28.70
2017-08-29T18:03:15.052Z,28.50
2017-08-29T18:05:42.609Z,28.30
2017-08-29T18:08:10.158Z,28.10
2017-08-29T18:10:38.025Z,27.90
2017-08-29T18:13:05.549Z,27.70
2017-08-29T18:15:33.095Z,27.60
2017-08-29T18:18:00.676Z,27.40
2017-08-29T18:20:28.236Z,27.30
2017-08-29T18:22:56.090Z,27.20
2017-08-29T18:25:23.642Z,27.20
2017-08-29T18:27:51.242Z,27.00
2017-08-29T18:30:18.812Z,26.90
2017-08-29T18:32:46.386Z,26.90
2017-08-29T18:35:14.251Z,26.70
2017-08-29T18:37:41.796Z,26.60
2017-08-29T18:40:09.324Z,26.60
2017-08-29T18:42:36.911Z,26.50
2017-08-29T18:45:04.446Z,26.40
2017-08-29T18:47:32.364Z,26.30
2017-08-29T18:49:59.925Z,26.20
2017-08-29T18:52:27.459Z,26.00
2017-08-29T18:54:55.097Z,26.00
2017-08-29T18:57:22.695Z,25.80
2017-08-29T18:59:50.521Z,25.80
2017-08-29T19:02:18.057Z,25.60
2017-08-29T19:04:46.264Z,25.60
2017-08-29T19:07:13.861Z,25.50
2017-08-29T19:09:41.466Z,25.40
2017-08-29T19:12:09.455Z,25.30
2017-08-29T19:14:37.011Z,25.30
2017-08-29T19:17:04.553Z,25.20
2017-08-29T19:19:32.140Z,25.10
2017-08-29T19:21:59.731Z,25.00
2017-08-29T19:24:27.656Z,24.90
2017-08-29T19:26:55.206Z,24.90
2017-08-29T19:29:22.780Z,24.80
2017-08-29T19:31:50.352Z,24.70
2017-08-29T19:34:17.948Z,24.60
2017-08-29T19:36:45.776Z,24.60
2017-08-29T19:39:13.318Z,24.50
2017-08-29T19:41:40.977Z,24.40
2017-08-29T19:44:08.559Z,24.30
2017-08-29T19:46:36.128Z,24.30
2017-08-29T19:49:04.158Z,24.20
2017-08-29T19:51:31.724Z,24.10
2017-08-29T19:53:59.269Z,24.10
2017-08-29T19:56:26.852Z,24.00
2017-08-29T19:58:54.411Z,23.90
2017-08-29T20:01:22.254Z,23.80
2017-08-29T20:03:49.830Z,23.70
2017-08-29T20:06:17.365Z,23.70
2017-08-29T20:08:44.923Z,23.60
2017-08-29T20:11:12.450Z,23.50
2017-08-29T20:13:40.018Z,23.50
2017-08-29T20:16:07.602Z,23.40
2017-08-29T20:18:35.159Z,23.30
2017-08-29T20:21:02.717Z,23.30
2017-08-29T20:23:30.246Z,23.20
2017-08-29T20:25:57.810Z,23.10
2017-08-29T20:28:25.357Z,23.10
2017-08-29T20:30:52.909Z,23.00
2017-08-29T20:33:20.445Z,23.00
2017-08-29T20:35:47.970Z,22.90
2017-08-29T20:38:15.594Z,22.90
2017-08-29T20:40:43.137Z,22.80
2017-08-29T20:43:10.745Z,22.80
2017-08-29T20:45:38.413Z,22.70
2017-08-29T20:48:05.998Z,22.70
2017-08-29T20:50:33.573Z,22.70
2017-08-29T20:53:01.108Z,22.60
2017-08-29T20:55:29.329Z,22.50
2017-08-29T20:57:56.870Z,22.50
2017-08-29T21:00:24.426Z,22.50
2017-08-29T21:02:51.999Z,22.40
2017-08-29T21:05:19.568Z,22.30
2017-08-29T21:07:47.672Z,22.30
2017-08-29T21:10:15.228Z,22.30
2017-08-29T21:12:42.794Z,22.20
2017-08-29T21:15:10.341Z,22.20
2017-08-29T21:17:37.914Z,22.10
2017-08-29T21:20:05.457Z,22.10
2017-08-29T21:22:33.053Z,22.00
2017-08-29T21:25:00.567Z,21.90
2017-08-29T21:27:28.366Z,21.80
2017-08-29T21:29:55.898Z,21.80
2017-08-29T21:32:23.416Z,21.70
2017-08-29T21:34:51.394Z,21.70
2017-08-29T21:37:18.917Z,21.60
2017-08-29T21:39:46.440Z,21.60
2017-08-29T21:42:14.297Z,21.50
2017-08-29T21:44:41.859Z,21.50
2017-08-29T21:47:09.399Z,21.40
2017-08-29T21:49:37.371Z,21.40
2017-08-29T21:52:04.924Z,21.30
2017-08-29T21:54:32.445Z,21.30
2017-08-29T21:57:00.281Z,21.30
2017-08-29T21:59:27.816Z,21.20
2017-08-29T22:01:55.363Z,21.20
2017-08-29T22:04:23.240Z,21.20
2017-08-29T22:06:50.994Z,21.10
2017-08-29T22:09:18.605Z,21.10
2017-08-29T22:11:46.419Z,21.10
2017-08-29T22:14:13.977Z,21.00
2017-08-29T22:16:41.509Z,21.00
2017-08-29T22:19:09.349Z,21.00
2017-08-29T22:21:36.888Z,20.90
2017-08-29T22:24:04.403Z,20.90
2017-08-29T22:26:31.957Z,20.80
2017-08-29T22:28:59.471Z,20.80
2017-08-29T22:31:27.431Z,20.70
2017-08-29T22:33:54.973Z,20.70
2017-08-29T22:36:22.503Z,20.70
2017-08-29T22:38:50.052Z,20.60
2017-08-29T22:41:17.584Z,20.60
2017-08-29T22:43:45.483Z,20.60
2017-08-29T22:46:13.024Z,20.50
2017-08-29T22:48:40.548Z,20.50
2017-08-29T22:51:08.085Z,20.50
2017-08-29T22:53:35.620Z,20.40
2017-08-29T22:56:03.654Z,20.40
2017-08-29T22:58:31.234Z,20.40
2017-08-29T23:00:58.760Z,20.30
2017-08-29T23:03:26.327Z,20.30
2017-08-29T23:05:53.899Z,20.30
2017-08-29T23:08:21.735Z,20.30
2017-08-29T23:10:49.277Z,20.20
2017-08-29T23:13:16.807Z,20.20
2017-08-29T23:15:44.401Z,20.20
2017-08-29T23:18:11.929Z,20.10
2017-08-29T23:20:39.884Z,20.10
2017-08-29T23:23:07.486Z,20.10
2017-08-29T23:25:34.991Z,20.10
2017-08-29T23:28:02.537Z,20.00
2017-08-29T23:30:30.077Z,20.00
2017-08-29T23:32:58.721Z,19.90
2017-08-29T23:35:26.236Z,19.90
2017-08-29T23:37:53.767Z,19.90
2017-08-29T23:40:21.335Z,19.90
2017-08-29T23:42:48.871Z,19.90
2017-08-29T23:45:16.705Z,19.90
2017-08-29T23:47:44.229Z,19.90
2017-08-29T23:50:11.760Z,19.80
2017-08-29T23:52:39.295Z,19.80
2017-08-29T23:55:06.823Z,19.80
2017-08-29T23:57:34.654Z,19.70
